sensor_id;sensor_type;location;lat;lon;timestamp;P1;durP1;ratioP1;P2;durP2;ratioP2
27424;SDS011;15244;49.088;11.886;2022-10-19T00:00:03;4.78;;;2.85;;
27424;SDS011;15244;49.088;11.886;2022-10-19T00:05:06;4.20;;;3.35;;
27424;SDS011;15244;49.088;11.886;2022-10-19T00:10:08;3.53;;;3.22;;
27424;SDS011;15244;49.088;11.886;2022-10-19T00:15:10;2.55;;;2.45;;
27424;SDS011;15244;49.088;11.886;2022-10-19T00:20:12;2.38;;;2.28;;
27424;SDS011;15244;49.088;11.886;2022-10-19T00:25:14;2.65;;;2.53;;
27424;SDS011;15244;49.088;11.886;2022-10-19T00:30:16;2.03;;;1.92;;
27424;SDS011;15244;49.088;11.886;2022-10-19T00:35:18;1.83;;;1.70;;
27424;SDS011;15244;49.088;11.886;2022-10-19T00:40:19;1.65;;;1.55;;
27424;SDS011;15244;49.088;11.886;2022-10-19T00:45:21;2.60;;;2.50;;
27424;SDS011;15244;49.088;11.886;2022-10-19T00:50:22;3.92;;;3.10;;
27424;SDS011;15244;49.088;11.886;2022-10-19T00:55:24;3.75;;;3.45;;
27424;SDS011;15244;49.088;11.886;2022-10-19T01:00:27;3.67;;;3.38;;
27424;SDS011;15244;49.088;11.886;2022-10-19T01:05:29;3.42;;;3.20;;
27424;SDS011;15244;49.088;11.886;2022-10-19T01:15:55;3.70;;;3.50;;
27424;SDS011;15244;49.088;11.886;2022-10-19T01:32:32;3.50;;;3.30;;
27424;SDS011;15244;49.088;11.886;2022-10-19T01:37:46;3.50;;;3.30;;
27424;SDS011;15244;49.088;11.886;2022-10-19T01:42:54;3.75;;;3.55;;
27424;SDS011;15244;49.088;11.886;2022-10-19T01:48:05;4.65;;;4.18;;
27424;SDS011;15244;49.088;11.886;2022-10-19T01:53:24;4.82;;;4.50;;
27424;SDS011;15244;49.088;11.886;2022-10-19T01:58:29;4.50;;;4.20;;
27424;SDS011;15244;49.088;11.886;2022-10-19T02:03:35;4.90;;;4.63;;
27424;SDS011;15244;49.088;11.886;2022-10-19T02:08:48;5.60;;;5.30;;
27424;SDS011;15244;49.088;11.886;2022-10-19T02:13:57;5.47;;;5.15;;
27424;SDS011;15244;49.088;11.886;2022-10-19T02:19:02;5.50;;;5.03;;
27424;SDS011;15244;49.088;11.886;2022-10-19T02:24:08;5.80;;;5.40;;
27424;SDS011;15244;49.088;11.886;2022-10-19T02:29:10;6.10;;;5.55;;
27424;SDS011;15244;49.088;11.886;2022-10-19T02:34:17;6.65;;;6.15;;
27424;SDS011;15244;49.088;11.886;2022-10-19T02:39:19;4.97;;;4.68;;
27424;SDS011;15244;49.088;11.886;2022-10-19T02:44:25;5.35;;;4.95;;
27424;SDS011;15244;49.088;11.886;2022-10-19T02:49:31;5.35;;;4.95;;
27424;SDS011;15244;49.088;11.886;2022-10-19T02:54:36;5.95;;;4.90;;
27424;SDS011;15244;49.088;11.886;2022-10-19T02:59:39;6.38;;;5.90;;
27424;SDS011;15244;49.088;11.886;2022-10-19T03:04:41;6.07;;;5.57;;
27424;SDS011;15244;49.088;11.886;2022-10-19T03:09:44;5.43;;;5.05;;
27424;SDS011;15244;49.088;11.886;2022-10-19T03:14:46;5.78;;;5.38;;
27424;SDS011;15244;49.088;11.886;2022-10-19T03:19:48;5.43;;;5.03;;
27424;SDS011;15244;49.088;11.886;2022-10-19T03:24:50;5.47;;;5.07;;
27424;SDS011;15244;49.088;11.886;2022-10-19T03:29:52;5.82;;;5.30;;
27424;SDS011;15244;49.088;11.886;2022-10-19T03:34:53;5.32;;;4.95;;
27424;SDS011;15244;49.088;11.886;2022-10-19T03:39:55;4.82;;;4.40;;
27424;SDS011;15244;49.088;11.886;2022-10-19T03:44:57;5.85;;;4.47;;
27424;SDS011;15244;49.088;11.886;2022-10-19T03:49:58;4.80;;;4.50;;
27424;SDS011;15244;49.088;11.886;2022-10-19T03:55:00;4.80;;;4.50;;
27424;SDS011;15244;49.088;11.886;2022-10-19T04:00:05;5.15;;;4.82;;
27424;SDS011;15244;49.088;11.886;2022-10-19T04:05:12;4.18;;;3.90;;
27424;SDS011;15244;49.088;11.886;2022-10-19T04:10:13;4.32;;;4.05;;
27424;SDS011;15244;49.088;11.886;2022-10-19T04:15:15;3.83;;;3.63;;
27424;SDS011;15244;49.088;11.886;2022-10-19T04:20:17;4.05;;;3.63;;
27424;SDS011;15244;49.088;11.886;2022-10-19T04:25:18;3.17;;;2.97;;
27424;SDS011;15244;49.088;11.886;2022-10-19T04:30:21;3.90;;;2.97;;
27424;SDS011;15244;49.088;11.886;2022-10-19T04:35:22;3.53;;;3.05;;
27424;SDS011;15244;49.088;11.886;2022-10-19T04:40:24;3.15;;;2.95;;
27424;SDS011;15244;49.088;11.886;2022-10-19T04:45:26;3.17;;;2.97;;
27424;SDS011;15244;49.088;11.886;2022-10-19T04:50:28;2.20;;;2.10;;
27424;SDS011;15244;49.088;11.886;2022-10-19T04:55:30;2.85;;;2.55;;
27424;SDS011;15244;49.088;11.886;2022-10-19T05:00:32;2.33;;;2.22;;
27424;SDS011;15244;49.088;11.886;2022-10-19T05:05:34;2.15;;;2.05;;
27424;SDS011;15244;49.088;11.886;2022-10-19T05:10:36;3.63;;;2.33;;
27424;SDS011;15244;49.088;11.886;2022-10-19T05:15:38;1.80;;;1.70;;
27424;SDS011;15244;49.088;11.886;2022-10-19T05:20:39;2.20;;;2.10;;
27424;SDS011;15244;49.088;11.886;2022-10-19T05:25:41;3.00;;;2.63;;
27424;SDS011;15244;49.088;11.886;2022-10-19T05:30:43;2.63;;;2.45;;
27424;SDS011;15244;49.088;11.886;2022-10-19T05:35:49;2.53;;;2.40;;
27424;SDS011;15244;49.088;11.886;2022-10-19T05:40:50;3.30;;;2.60;;
27424;SDS011;15244;49.088;11.886;2022-10-19T05:45:54;2.67;;;2.47;;
27424;SDS011;15244;49.088;11.886;2022-10-19T05:50:56;1.77;;;1.67;;
27424;SDS011;15244;49.088;11.886;2022-10-19T05:55:58;2.10;;;2.00;;
27424;SDS011;15244;49.088;11.886;2022-10-19T06:01:00;1.42;;;1.42;;
27424;SDS011;15244;49.088;11.886;2022-10-19T06:06:03;1.25;;;1.25;;
27424;SDS011;15244;49.088;11.886;2022-10-19T06:11:11;1.27;;;1.27;;
27424;SDS011;15244;49.088;11.886;2022-10-19T06:16:35;1.30;;;1.30;;
27424;SDS011;15244;49.088;11.886;2022-10-19T06:21:37;1.60;;;1.50;;
27424;SDS011;15244;49.088;11.886;2022-10-19T06:26:45;1.70;;;1.60;;
27424;SDS011;15244;49.088;11.886;2022-10-19T06:31:47;2.08;;;1.98;;
27424;SDS011;15244;49.088;11.886;2022-10-19T06:36:48;2.05;;;1.95;;
27424;SDS011;15244;49.088;11.886;2022-10-19T06:41:50;2.85;;;2.65;;
27424;SDS011;15244;49.088;11.886;2022-10-19T06:46:52;3.00;;;2.72;;
27424;SDS011;15244;49.088;11.886;2022-10-19T06:51:54;2.40;;;2.28;;
27424;SDS011;15244;49.088;11.886;2022-10-19T06:56:56;2.40;;;2.13;;
27424;SDS011;15244;49.088;11.886;2022-10-19T07:01:58;2.70;;;2.50;;
27424;SDS011;15244;49.088;11.886;2022-10-19T07:07:00;2.70;;;2.60;;
27424;SDS011;15244;49.088;11.886;2022-10-19T07:12:01;4.97;;;3.67;;
27424;SDS011;15244;49.088;11.886;2022-10-19T07:17:04;4.57;;;4.18;;
27424;SDS011;15244;49.088;11.886;2022-10-19T07:22:07;4.53;;;4.22;;
27424;SDS011;15244;49.088;11.886;2022-10-19T07:27:08;4.90;;;4.57;;
27424;SDS011;15244;49.088;11.886;2022-10-19T07:32:10;4.75;;;4.40;;
27424;SDS011;15244;49.088;11.886;2022-10-19T07:37:11;4.32;;;3.92;;
27424;SDS011;15244;49.088;11.886;2022-10-19T07:42:13;5.75;;;5.15;;
27424;SDS011;15244;49.088;11.886;2022-10-19T07:47:15;4.50;;;4.10;;
27424;SDS011;15244;49.088;11.886;2022-10-19T07:52:17;5.60;;;5.20;;
27424;SDS011;15244;49.088;11.886;2022-10-19T07:57:18;6.55;;;4.90;;
27424;SDS011;15244;49.088;11.886;2022-10-19T08:02:22;4.88;;;4.47;;
27424;SDS011;15244;49.088;11.886;2022-10-19T08:07:39;7.72;;;5.25;;
27424;SDS011;15244;49.088;11.886;2022-10-19T08:12:42;5.50;;;5.10;;
27424;SDS011;15244;49.088;11.886;2022-10-19T08:17:44;5.70;;;5.30;;
27424;SDS011;15244;49.088;11.886;2022-10-19T08:22:46;5.20;;;4.80;;
27424;SDS011;15244;49.088;11.886;2022-10-19T08:27:47;4.90;;;4.32;;
27424;SDS011;15244;49.088;11.886;2022-10-19T08:32:49;4.22;;;3.92;;
27424;SDS011;15244;49.088;11.886;2022-10-19T08:37:51;5.07;;;4.63;;
27424;SDS011;15244;49.088;11.886;2022-10-19T08:53:17;5.25;;;4.90;;
27424;SDS011;15244;49.088;11.886;2022-10-19T08:58:44;4.80;;;4.50;;
27424;SDS011;15244;49.088;11.886;2022-10-19T09:04:16;5.70;;;5.35;;
27424;SDS011;15244;49.088;11.886;2022-10-19T09:09:19;6.07;;;5.68;;
27424;SDS011;15244;49.088;11.886;2022-10-19T09:14:31;6.57;;;6.07;;
27424;SDS011;15244;49.088;11.886;2022-10-19T09:19:34;7.70;;;7.10;;
27424;SDS011;15244;49.088;11.886;2022-10-19T09:24:38;7.85;;;7.20;;
27424;SDS011;15244;49.088;11.886;2022-10-19T09:29:43;8.07;;;7.28;;
27424;SDS011;15244;49.088;11.886;2022-10-19T09:34:55;7.78;;;7.07;;
27424;SDS011;15244;49.088;11.886;2022-10-19T09:40:02;7.88;;;7.18;;
27424;SDS011;15244;49.088;11.886;2022-10-19T09:45:22;9.98;;;7.80;;
27424;SDS011;15244;49.088;11.886;2022-10-19T09:50:32;8.85;;;7.95;;
27424;SDS011;15244;49.088;11.886;2022-10-19T10:00:39;9.35;;;8.43;;
27424;SDS011;15244;49.088;11.886;2022-10-19T10:05:45;10.30;;;9.30;;
27424;SDS011;15244;49.088;11.886;2022-10-19T10:16:14;9.88;;;8.88;;
27424;SDS011;15244;49.088;11.886;2022-10-19T10:21:22;9.13;;;8.30;;
27424;SDS011;15244;49.088;11.886;2022-10-19T10:26:36;8.40;;;7.65;;
27424;SDS011;15244;49.088;11.886;2022-10-19T10:31:43;9.50;;;8.73;;
27424;SDS011;15244;49.088;11.886;2022-10-19T10:36:48;11.32;;;10.15;;
27424;SDS011;15244;49.088;11.886;2022-10-19T10:41:52;11.65;;;10.00;;
27424;SDS011;15244;49.088;11.886;2022-10-19T10:46:55;12.40;;;11.07;;
27424;SDS011;15244;49.088;11.886;2022-10-19T10:51:59;12.48;;;10.65;;
27424;SDS011;15244;49.088;11.886;2022-10-19T10:57:14;13.85;;;11.00;;
27424;SDS011;15244;49.088;11.886;2022-10-19T11:07:32;12.00;;;10.80;;
27424;SDS011;15244;49.088;11.886;2022-10-19T11:12:37;11.85;;;10.60;;
27424;SDS011;15244;49.088;11.886;2022-10-19T11:17:50;15.07;;;10.52;;
27424;SDS011;15244;49.088;11.886;2022-10-19T11:28:03;10.98;;;9.80;;
27424;SDS011;15244;49.088;11.886;2022-10-19T11:49:37;11.45;;;8.30;;
27424;SDS011;15244;49.088;11.886;2022-10-19T12:00:20;8.40;;;7.60;;
27424;SDS011;15244;49.088;11.886;2022-10-19T12:16:40;7.28;;;6.57;;
27424;SDS011;15244;49.088;11.886;2022-10-19T12:21:44;6.65;;;6.15;;
27424;SDS011;15244;49.088;11.886;2022-10-19T12:26:47;7.22;;;6.43;;
27424;SDS011;15244;49.088;11.886;2022-10-19T12:31:52;7.35;;;6.60;;
27424;SDS011;15244;49.088;11.886;2022-10-19T12:37:01;7.93;;;7.13;;
27424;SDS011;15244;49.088;11.886;2022-10-19T12:42:15;7.43;;;6.72;;
27424;SDS011;15244;49.088;11.886;2022-10-19T12:47:39;6.45;;;5.90;;
27424;SDS011;15244;49.088;11.886;2022-10-19T12:53:01;6.47;;;4.90;;
27424;SDS011;15244;49.088;11.886;2022-10-19T12:58:04;5.70;;;5.18;;
27424;SDS011;15244;49.088;11.886;2022-10-19T13:03:29;5.38;;;4.88;;
27424;SDS011;15244;49.088;11.886;2022-10-19T13:08:37;5.45;;;5.03;;
27424;SDS011;15244;49.088;11.886;2022-10-19T13:14:03;5.53;;;5.10;;
27424;SDS011;15244;49.088;11.886;2022-10-19T13:29:27;5.25;;;4.80;;
27424;SDS011;15244;49.088;11.886;2022-10-19T13:34:39;5.00;;;4.60;;
27424;SDS011;15244;49.088;11.886;2022-10-19T13:39:42;4.72;;;4.15;;
27424;SDS011;15244;49.088;11.886;2022-10-19T13:44:44;4.70;;;4.30;;
27424;SDS011;15244;49.088;11.886;2022-10-19T14:00:57;4.43;;;4.03;;
27424;SDS011;15244;49.088;11.886;2022-10-19T14:12:02;3.97;;;3.67;;
27424;SDS011;15244;49.088;11.886;2022-10-19T14:17:14;5.57;;;5.10;;
27424;SDS011;15244;49.088;11.886;2022-10-19T14:22:29;5.40;;;4.90;;
27424;SDS011;15244;49.088;11.886;2022-10-19T14:27:34;5.28;;;4.78;;
27424;SDS011;15244;49.088;11.886;2022-10-19T14:32:37;4.97;;;4.57;;
27424;SDS011;15244;49.088;11.886;2022-10-19T14:37:41;5.35;;;4.90;;
27424;SDS011;15244;49.088;11.886;2022-10-19T14:42:45;5.43;;;5.03;;
27424;SDS011;15244;49.088;11.886;2022-10-19T14:47:50;5.07;;;4.68;;
27424;SDS011;15244;49.088;11.886;2022-10-19T14:52:55;4.90;;;4.50;;
27424;SDS011;15244;49.088;11.886;2022-10-19T15:03:05;7.75;;;4.13;;
27424;SDS011;15244;49.088;11.886;2022-10-19T15:08:18;4.82;;;4.43;;
27424;SDS011;15244;49.088;11.886;2022-10-19T15:13:25;3.90;;;3.70;;
27424;SDS011;15244;49.088;11.886;2022-10-19T15:18:33;4.20;;;3.90;;
27424;SDS011;15244;49.088;11.886;2022-10-19T15:23:51;4.90;;;4.00;;
27424;SDS011;15244;49.088;11.886;2022-10-19T15:29:05;6.10;;;5.50;;
27424;SDS011;15244;49.088;11.886;2022-10-19T15:34:16;4.88;;;4.40;;
27424;SDS011;15244;49.088;11.886;2022-10-19T15:39:26;4.70;;;4.28;;
27424;SDS011;15244;49.088;11.886;2022-10-19T15:44:42;4.32;;;3.95;;
27424;SDS011;15244;49.088;11.886;2022-10-19T15:49:49;4.60;;;4.20;;
27424;SDS011;15244;49.088;11.886;2022-10-19T15:54:54;4.40;;;4.10;;
27424;SDS011;15244;49.088;11.886;2022-10-19T16:00:05;4.53;;;3.97;;
27424;SDS011;15244;49.088;11.886;2022-10-19T16:05:12;3.85;;;3.65;;
27424;SDS011;15244;49.088;11.886;2022-10-19T16:10:16;3.95;;;3.75;;
27424;SDS011;15244;49.088;11.886;2022-10-19T16:20:27;4.78;;;3.88;;
27424;SDS011;15244;49.088;11.886;2022-10-19T16:25:29;4.18;;;3.85;;
27424;SDS011;15244;49.088;11.886;2022-10-19T16:30:31;3.95;;;3.65;;
27424;SDS011;15244;49.088;11.886;2022-10-19T16:35:33;5.78;;;4.15;;
27424;SDS011;15244;49.088;11.886;2022-10-19T16:40:37;4.13;;;3.40;;
27424;SDS011;15244;49.088;11.886;2022-10-19T16:45:42;4.47;;;4.18;;
27424;SDS011;15244;49.088;11.886;2022-10-19T16:50:44;4.75;;;4.45;;
27424;SDS011;15244;49.088;11.886;2022-10-19T16:55:46;4.68;;;4.35;;
27424;SDS011;15244;49.088;11.886;2022-10-19T17:00:48;4.80;;;4.40;;
27424;SDS011;15244;49.088;11.886;2022-10-19T17:05:50;5.35;;;4.85;;
27424;SDS011;15244;49.088;11.886;2022-10-19T17:10:52;5.40;;;5.00;;
27424;SDS011;15244;49.088;11.886;2022-10-19T17:15:54;5.55;;;5.15;;
27424;SDS011;15244;49.088;11.886;2022-10-19T17:21:06;6.25;;;5.50;;
27424;SDS011;15244;49.088;11.886;2022-10-19T17:26:10;5.60;;;4.97;;
27424;SDS011;15244;49.088;11.886;2022-10-19T17:31:13;5.75;;;5.22;;
27424;SDS011;15244;49.088;11.886;2022-10-19T17:36:18;5.90;;;5.30;;
27424;SDS011;15244;49.088;11.886;2022-10-19T17:41:21;4.88;;;4.32;;
27424;SDS011;15244;49.088;11.886;2022-10-19T17:46:25;7.13;;;5.50;;
27424;SDS011;15244;49.088;11.886;2022-10-19T17:51:29;7.15;;;5.70;;
27424;SDS011;15244;49.088;11.886;2022-10-19T17:56:34;7.93;;;4.80;;
27424;SDS011;15244;49.088;11.886;2022-10-19T18:01:37;6.72;;;5.35;;
27424;SDS011;15244;49.088;11.886;2022-10-19T18:06:38;6.85;;;6.25;;
27424;SDS011;15244;49.088;11.886;2022-10-19T18:11:41;6.82;;;5.85;;
27424;SDS011;15244;49.088;11.886;2022-10-19T18:16:44;8.65;;;6.38;;
27424;SDS011;15244;49.088;11.886;2022-10-19T18:21:47;6.25;;;5.75;;
27424;SDS011;15244;49.088;11.886;2022-10-19T18:26:49;6.55;;;5.97;;
27424;SDS011;15244;49.088;11.886;2022-10-19T18:31:51;6.20;;;5.60;;
27424;SDS011;15244;49.088;11.886;2022-10-19T18:36:53;7.20;;;6.30;;
27424;SDS011;15244;49.088;11.886;2022-10-19T18:41:55;7.22;;;5.30;;
27424;SDS011;15244;49.088;11.886;2022-10-19T18:46:57;8.52;;;5.78;;
27424;SDS011;15244;49.088;11.886;2022-10-19T18:51:59;6.05;;;5.32;;
27424;SDS011;15244;49.088;11.886;2022-10-19T18:57:01;6.40;;;5.28;;
27424;SDS011;15244;49.088;11.886;2022-10-19T19:02:03;7.57;;;6.15;;
27424;SDS011;15244;49.088;11.886;2022-10-19T19:07:06;6.78;;;6.03;;
27424;SDS011;15244;49.088;11.886;2022-10-19T19:12:08;7.18;;;6.63;;
27424;SDS011;15244;49.088;11.886;2022-10-19T19:17:09;9.48;;;7.47;;
27424;SDS011;15244;49.088;11.886;2022-10-19T19:22:11;7.68;;;6.85;;
27424;SDS011;15244;49.088;11.886;2022-10-19T19:27:13;11.80;;;7.15;;
27424;SDS011;15244;49.088;11.886;2022-10-19T19:32:15;8.77;;;7.38;;
27424;SDS011;15244;49.088;11.886;2022-10-19T19:37:17;8.07;;;7.28;;
27424;SDS011;15244;49.088;11.886;2022-10-19T19:42:19;8.82;;;7.97;;
27424;SDS011;15244;49.088;11.886;2022-10-19T19:47:27;8.48;;;7.60;;
27424;SDS011;15244;49.088;11.886;2022-10-19T19:52:28;8.40;;;7.60;;
27424;SDS011;15244;49.088;11.886;2022-10-19T19:57:30;7.95;;;7.25;;
27424;SDS011;15244;49.088;11.886;2022-10-19T20:02:32;8.30;;;7.60;;
27424;SDS011;15244;49.088;11.886;2022-10-19T20:07:37;9.02;;;8.13;;
27424;SDS011;15244;49.088;11.886;2022-10-19T20:12:39;9.60;;;7.97;;
27424;SDS011;15244;49.088;11.886;2022-10-19T20:17:41;8.45;;;7.65;;
27424;SDS011;15244;49.088;11.886;2022-10-19T20:22:47;8.70;;;7.22;;
27424;SDS011;15244;49.088;11.886;2022-10-19T20:27:51;7.55;;;6.90;;
27424;SDS011;15244;49.088;11.886;2022-10-19T20:32:53;7.75;;;7.05;;
27424;SDS011;15244;49.088;11.886;2022-10-19T20:37:55;13.88;;;8.10;;
27424;SDS011;15244;49.088;11.886;2022-10-19T20:43:00;7.13;;;6.53;;
27424;SDS011;15244;49.088;11.886;2022-10-19T20:48:02;11.48;;;8.25;;
27424;SDS011;15244;49.088;11.886;2022-10-19T20:53:04;11.32;;;7.50;;
27424;SDS011;15244;49.088;11.886;2022-10-19T20:58:06;7.97;;;7.15;;
27424;SDS011;15244;49.088;11.886;2022-10-19T21:03:07;9.05;;;7.30;;
27424;SDS011;15244;49.088;11.886;2022-10-19T21:08:09;8.35;;;6.80;;
27424;SDS011;15244;49.088;11.886;2022-10-19T21:13:12;7.55;;;6.85;;
27424;SDS011;15244;49.088;11.886;2022-10-19T21:18:14;7.05;;;6.40;;
27424;SDS011;15244;49.088;11.886;2022-10-19T21:23:17;7.63;;;6.90;;
27424;SDS011;15244;49.088;11.886;2022-10-19T21:28:19;8.35;;;7.30;;
27424;SDS011;15244;49.088;11.886;2022-10-19T21:33:23;8.88;;;7.25;;
27424;SDS011;15244;49.088;11.886;2022-10-19T21:38:27;7.00;;;6.50;;
27424;SDS011;15244;49.088;11.886;2022-10-19T21:43:31;7.45;;;6.90;;
27424;SDS011;15244;49.088;11.886;2022-10-19T21:48:34;6.95;;;6.28;;
27424;SDS011;15244;49.088;11.886;2022-10-19T21:53:37;7.22;;;6.63;;
27424;SDS011;15244;49.088;11.886;2022-10-19T21:58:42;7.65;;;7.00;;
27424;SDS011;15244;49.088;11.886;2022-10-19T22:03:44;8.95;;;7.53;;
27424;SDS011;15244;49.088;11.886;2022-10-19T22:08:46;6.97;;;6.03;;
27424;SDS011;15244;49.088;11.886;2022-10-19T22:13:52;10.25;;;6.78;;
27424;SDS011;15244;49.088;11.886;2022-10-19T22:18:55;7.78;;;6.80;;
27424;SDS011;15244;49.088;11.886;2022-10-19T22:23:59;6.93;;;6.30;;
27424;SDS011;15244;49.088;11.886;2022-10-19T22:29:03;6.85;;;6.22;;
27424;SDS011;15244;49.088;11.886;2022-10-19T22:34:08;6.97;;;6.28;;
27424;SDS011;15244;49.088;11.886;2022-10-19T22:39:13;7.43;;;6.68;;
27424;SDS011;15244;49.088;11.886;2022-10-19T22:44:15;7.10;;;6.43;;
27424;SDS011;15244;49.088;11.886;2022-10-19T22:49:16;9.57;;;6.72;;
27424;SDS011;15244;49.088;11.886;2022-10-19T22:54:18;6.75;;;6.30;;
27424;SDS011;15244;49.088;11.886;2022-10-19T22:59:20;12.85;;;7.30;;
27424;SDS011;15244;49.088;11.886;2022-10-19T23:04:21;7.50;;;6.13;;
27424;SDS011;15244;49.088;11.886;2022-10-19T23:09:23;7.55;;;6.38;;
27424;SDS011;15244;49.088;11.886;2022-10-19T23:14:26;7.22;;;6.18;;
27424;SDS011;15244;49.088;11.886;2022-10-19T23:19:28;7.38;;;6.53;;
27424;SDS011;15244;49.088;11.886;2022-10-19T23:24:29;7.60;;;6.38;;
27424;SDS011;15244;49.088;11.886;2022-10-19T23:29:31;9.02;;;6.30;;
27424;SDS011;15244;49.088;11.886;2022-10-19T23:34:32;6.70;;;6.10;;
27424;SDS011;15244;49.088;11.886;2022-10-19T23:39:35;8.65;;;6.80;;
27424;SDS011;15244;49.088;11.886;2022-10-19T23:44:37;6.53;;;5.88;;
27424;SDS011;15244;49.088;11.886;2022-10-19T23:49:38;6.68;;;5.90;;
27424;SDS011;15244;49.088;11.886;2022-10-19T23:54:40;8.07;;;6.38;;
27424;SDS011;15244;49.088;11.886;2022-10-19T23:59:42;9.38;;;6.22;;
